Time;durP1;ratioP1;P1;durP2;ratioP2;P2;SDS_P1;SDS_P2;PMS_P1;PMS_P2;Temp;Humidity;BMP_temperature;BMP_pressure;BME280_temperature;BME280_humidity;BME280_pressure;Samples;Min_cycle;Max_cycle;Signal;HPM_P1;HPM_P2
2022/10/07 00:01:12;;;;;;;0.20;0.20;;;22.50;44.80;;;;;;6084696;28;20063;-61
2022/10/07 00:04:15;;;;;;;0.70;0.30;;;22.90;44.90;;;;;;6089963;28;20089;-60
2022/10/07 00:07:16;;;;;;;0.70;0.40;;;22.70;44.60;;;;;;6067565;28;20106;-60
2022/10/07 00:10:17;;;;;;;;;;;22.50;44.60;;;;;;6093196;28;20051;-60
2022/10/07 00:13:19;;;;;;;0.40;0.20;;;22.40;44.70;;;;;;6073362;29;19957;-59
2022/10/07 00:16:23;;;;;;;;;;;22.60;44.70;;;;;;6088545;28;20055;-58
2022/10/07 00:19:26;;;;;;;0.75;0.52;;;22.60;44.70;;;;;;6060243;28;20046;-61
2022/10/07 00:22:29;;;;;;;0.65;0.50;;;22.40;44.50;;;;;;6086419;28;20048;-61
2022/10/07 00:25:30;;;;;;;0.65;0.32;;;22.70;44.70;;;;;;6083481;28;20166;-59
2022/10/07 00:28:32;;;;;;;0.40;0.30;;;22.40;44.50;;;;;;6080736;29;20365;-60
2022/10/07 00:31:35;;;;;;;0.70;0.40;;;22.60;44.50;;;;;;6079212;28;20059;-60
2022/10/07 00:34:37;;;;;;;0.50;0.40;;;22.30;44.30;;;;;;6069386;28;20150;-59
2022/10/07 00:37:41;;;;;;;0.77;0.40;;;22.30;44.80;;;;;;6088889;28;20043;-60
2022/10/07 00:40:43;;;;;;;1.25;0.85;;;22.80;44.60;;;;;;6082551;29;20154;-60
2022/10/07 00:43:46;;;;;;;0.77;0.60;;;22.60;44.40;;;;;;6088763;28;20066;-60
2022/10/07 00:46:47;;;;;;;0.65;0.40;;;22.60;44.30;;;;;;6068625;28;20047;-60
2022/10/07 00:49:53;;;;;;;0.57;0.30;;;22.20;44.30;;;;;;6100199;28;20054;-60
2022/10/07 00:52:58;;;;;;;0.75;0.30;;;22.70;44.30;;;;;;6072522;28;20118;-60
2022/10/07 00:56:06;;;;;;;0.50;0.40;;;22.70;44.30;;;;;;6088287;29;20132;-60
2022/10/07 00:59:09;;;;;;;0.82;0.50;;;22.20;44.00;;;;;;6087172;28;20894;-59
2022/10/07 01:02:10;;;;;;;0.40;0.30;;;22.20;44.00;;;;;;6091814;28;20078;-59
2022/10/07 01:05:13;;;;;;;1.10;0.35;;;22.40;44.00;;;;;;6089407;28;20039;-60
2022/10/07 01:08:17;;;;;;;0.65;0.38;;;22.20;43.80;;;;;;6086898;28;20990;-60
2022/10/07 01:11:37;;;;;;;0.63;0.30;;;22.30;43.80;;;;;;6091499;28;20051;-60
2022/10/07 01:14:49;;;;;;;0.52;0.40;;;22.70;43.90;;;;;;6091032;28;20114;-60
2022/10/07 01:17:58;;;;;;;0.40;0.30;;;22.80;43.90;;;;;;6084763;28;20051;-60
2022/10/07 01:21:06;;;;;;;1.02;0.40;;;22.40;43.70;;;;;;6080928;29;20114;-60
2022/10/07 01:24:23;;;;;;;0.25;0.25;;;22.40;43.80;;;;;;6070810;28;20040;-60
2022/10/07 01:27:29;;;;;;;0.60;0.40;;;22.50;43.70;;;;;;6080739;28;20091;-63
2022/10/07 01:30:36;;;;;;;0.65;0.60;;;22.50;43.70;;;;;;6082805;28;20916;-60
2022/10/07 01:33:40;;;;;;;0.52;0.40;;;22.20;43.60;;;;;;6062995;28;20051;-60
2022/10/07 01:36:50;;;;;;;0.60;0.40;;;22.20;43.50;;;;;;6075892;29;20148;-60
2022/10/07 01:39:56;;;;;;;0.70;0.25;;;22.20;43.40;;;;;;6086116;28;20651;-59
2022/10/07 01:43:03;;;;;;;0.50;0.32;;;22.40;43.60;;;;;;6058016;28;20047;-61
2022/10/07 01:46:08;;;;;;;0.60;0.40;;;22.20;43.30;;;;;;6089773;28;22145;-60
2022/10/07 01:49:10;;;;;;;0.57;0.40;;;22.20;43.30;;;;;;6062311;28;20564;-61
2022/10/07 01:52:34;;;;;;;0.95;0.47;;;22.50;43.60;;;;;;6081316;29;20075;-60
2022/10/07 01:55:49;;;;;;;0.43;0.30;;;22.50;43.20;;;;;;6081655;28;20083;-61
2022/10/07 01:59:11;;;;;;;0.40;0.30;;;22.30;43.10;;;;;;6086997;28;20186;-61
2022/10/07 02:02:26;;;;;;;0.63;0.32;;;22.50;43.10;;;;;;6087469;28;20767;-59
2022/10/07 02:05:41;;;;;;;0.85;0.40;;;22.50;43.00;;;;;;6076827;28;20051;-60
2022/10/07 02:08:48;;;;;;;0.93;0.50;;;22.10;43.40;;;;;;6079747;28;20051;-60
2022/10/07 02:11:59;;;;;;;1.00;0.50;;;22.40;42.90;;;;;;6092046;28;20063;-60
2022/10/07 02:15:11;;;;;;;0.85;0.38;;;22.40;42.70;;;;;;6089586;28;20047;-60
2022/10/07 02:18:16;;;;;;;0.63;0.40;;;22.40;42.70;;;;;;6082248;28;20046;-60
2022/10/07 02:21:21;;;;;;;0.85;0.50;;;22.50;42.80;;;;;;6092352;28;20414;-60
2022/10/07 02:24:26;;;;;;;0.82;0.50;;;22.00;42.40;;;;;;6068612;28;20154;-60
2022/10/07 02:27:33;;;;;;;0.80;0.50;;;22.40;42.60;;;;;;6084040;28;20071;-60
2022/10/07 02:30:39;;;;;;;0.93;0.50;;;22.00;42.40;;;;;;6091094;28;20114;-60
2022/10/07 02:33:41;;;;;;;0.50;0.40;;;22.20;42.50;;;;;;6080113;28;20054;-60
2022/10/07 02:36:49;;;;;;;0.85;0.40;;;22.20;42.60;;;;;;6096328;28;20047;-60
2022/10/07 02:39:52;;;;;;;1.25;0.52;;;22.20;42.40;;;;;;6093891;28;21047;-60
2022/10/07 02:42:58;;;;;;;0.80;0.40;;;22.30;42.50;;;;;;6092488;28;20047;-60
2022/10/07 02:46:07;;;;;;;0.50;0.40;;;22.10;42.40;;;;;;6064485;28;20862;-61
2022/10/07 02:49:13;;;;;;;0.47;0.32;;;22.20;42.40;;;;;;6059639;28;20044;-60
2022/10/07 02:52:17;;;;;;;0.68;0.40;;;22.40;42.50;;;;;;6091852;28;20122;-60
2022/10/07 02:55:24;;;;;;;0.65;0.40;;;22.10;42.40;;;;;;6091909;28;20051;-60
2022/10/07 02:58:26;;;;;;;0.60;0.40;;;22.10;42.30;;;;;;6071309;29;20138;-60
2022/10/07 03:01:33;;;;;;;0.50;0.38;;;22.20;42.50;;;;;;6080522;28;20047;-61
2022/10/07 03:04:34;;;;;;;0.70;0.43;;;21.90;42.20;;;;;;6088268;28;20043;-60
2022/10/07 03:07:36;;;;;;;;;;;22.20;42.40;;;;;;6096870;28;20127;-60
2022/10/07 03:10:39;;;;;;;0.70;0.50;;;22.20;42.40;;;;;;6082749;28;20830;-60
2022/10/07 03:13:43;;;;;;;0.50;0.40;;;22.00;42.50;;;;;;6082492;28;20040;-60
2022/10/07 03:16:45;;;;;;;0.80;0.43;;;22.40;42.60;;;;;;6074822;28;20405;-59
2022/10/07 03:19:48;;;;;;;0.47;0.40;;;21.60;42.10;;;;;;6068032;29;20055;-58
2022/10/07 03:22:49;;;;;;;0.77;0.40;;;22.00;42.30;;;;;;6076964;28;20262;-59
2022/10/07 03:25:54;;;;;;;0.70;0.40;;;22.30;42.40;;;;;;6073129;28;20051;-58
2022/10/07 03:28:58;;;;;;;1.00;0.50;;;22.40;42.30;;;;;;6069122;28;20059;-59
2022/10/07 03:32:04;;;;;;;0.68;0.50;;;22.40;42.30;;;;;;6065400;28;20774;-59
2022/10/07 03:35:07;;;;;;;0.65;0.45;;;21.90;42.00;;;;;;6065123;29;20056;-58
2022/10/07 03:38:10;;;;;;;0.50;0.32;;;22.30;42.10;;;;;;6057534;29;20078;-59
2022/10/07 03:41:17;;;;;;;0.75;0.47;;;22.30;42.00;;;;;;6077682;28;20158;-56
2022/10/07 03:44:23;;;;;;;0.55;0.40;;;22.30;42.10;;;;;;6055703;29;20159;-60
2022/10/07 03:47:26;;;;;;;0.47;0.40;;;22.50;42.10;;;;;;6079032;28;20059;-60
2022/10/07 03:50:28;;;;;;;0.73;0.30;;;21.70;41.60;;;;;;6084026;28;20391;-60
2022/10/07 03:53:38;;;;;;;;;;;22.50;42.10;;;;;;6089765;28;20275;-59
2022/10/07 03:56:40;;;;;;;0.82;0.40;;;21.90;42.00;;;;;;6077935;28;19950;-59
2022/10/07 03:59:41;;;;;;;0.63;0.50;;;22.00;41.90;;;;;;6092047;28;20475;-59
2022/10/07 04:02:44;;;;;;;0.63;0.43;;;22.20;42.00;;;;;;6081092;28;20158;-58
2022/10/07 04:05:58;;;;;;;0.30;0.30;;;22.60;42.20;;;;;;6084420;28;20055;-58
2022/10/07 04:09:02;;;;;;;0.75;0.40;;;22.10;41.80;;;;;;6085579;28;20252;-58
2022/10/07 04:12:04;;;;;;;0.60;0.50;;;22.10;41.90;;;;;;6078748;28;20046;-58
2022/10/07 04:15:12;;;;;;;0.98;0.50;;;21.90;41.80;;;;;;6081548;28;20059;-59
2022/10/07 04:18:17;;;;;;;0.60;0.35;;;21.90;41.60;;;;;;6079367;28;20277;-57
2022/10/07 04:21:18;;;;;;;0.63;0.40;;;22.30;41.70;;;;;;6078297;28;20055;-58
2022/10/07 04:24:20;;;;;;;0.52;0.30;;;22.50;42.00;;;;;;6075683;28;20610;-58
2022/10/07 04:27:22;;;;;;;0.63;0.50;;;22.00;41.60;;;;;;6083195;28;20964;-55
2022/10/07 04:30:47;;;;;;;0.40;0.30;;;22.00;41.60;;;;;;6062657;29;20383;-58
2022/10/07 04:33:50;;;;;;;0.70;0.30;;;21.80;41.40;;;;;;6063902;28;20413;-56
2022/10/07 04:36:59;;;;;;;0.40;0.30;;;22.10;41.60;;;;;;6061268;29;20155;-58
2022/10/07 04:40:02;;;;;;;0.52;0.47;;;22.00;41.50;;;;;;6066821;28;20338;-58
2022/10/07 04:43:18;;;;;;;1.27;0.40;;;22.00;41.50;;;;;;6081524;28;20054;-59
2022/10/07 04:46:27;;;;;;;0.40;0.40;;;22.00;41.40;;;;;;6077448;28;21014;-59
2022/10/07 04:49:35;;;;;;;0.38;0.30;;;22.20;56.50;;;;;;6086844;28;20051;-59
2022/10/07 04:52:40;;;;;;;0.45;0.40;;;22.10;41.70;;;;;;6080553;28;20055;-60
2022/10/07 04:55:43;;;;;;;0.43;0.40;;;21.90;41.60;;;;;;6067176;28;20852;-60
2022/10/07 04:58:45;;;;;;;0.43;0.30;;;22.10;41.60;;;;;;6057757;29;21100;-60
2022/10/07 05:01:47;;;;;;;0.80;0.45;;;22.00;41.70;;;;;;6073773;28;20055;-60
2022/10/07 05:04:53;;;;;;;0.30;0.30;;;21.90;41.60;;;;;;6072914;28;20074;-60
2022/10/07 05:07:55;;;;;;;0.55;0.32;;;22.00;41.60;;;;;;6084155;28;20878;-61
2022/10/07 05:11:01;;;;;;;0.90;0.52;;;22.20;41.90;;;;;;6073923;28;20058;-60
2022/10/07 05:14:06;;;;;;;0.68;0.25;;;22.00;41.60;;;;;;6071398;28;20050;-60
2022/10/07 05:17:12;;;;;;;0.43;0.38;;;21.70;41.40;;;;;;6070312;28;20059;-60
2022/10/07 05:20:15;;;;;;;0.50;0.43;;;21.80;41.50;;;;;;6079628;28;20059;-59
2022/10/07 05:23:18;;;;;;;0.70;0.40;;;22.10;41.80;;;;;;6072052;28;20056;-60
2022/10/07 05:26:20;;;;;;;0.65;0.40;;;22.30;41.90;;;;;;6085161;28;20488;-59
2022/10/07 05:29:27;;;;;;;0.50;0.30;;;22.00;41.90;;;;;;6076006;28;20052;-58
2022/10/07 05:32:30;;;;;;;0.82;0.30;;;22.10;42.10;;;;;;6078965;28;20078;-60
2022/10/07 05:35:33;;;;;;;0.63;0.32;;;22.00;41.90;;;;;;6076605;28;20044;-61
2022/10/07 05:38:36;;;;;;;0.80;0.43;;;21.90;41.90;;;;;;6077713;28;20249;-59
2022/10/07 05:41:41;;;;;;;0.30;0.20;;;21.70;41.80;;;;;;6078357;28;20142;-59
2022/10/07 05:44:48;;;;;;;0.35;0.30;;;22.00;41.90;;;;;;6083486;28;20043;-61
2022/10/07 05:47:50;;;;;;;0.40;0.30;;;22.00;42.00;;;;;;6070403;28;20048;-60
2022/10/07 05:50:56;;;;;;;0.63;0.40;;;21.80;41.80;;;;;;6084112;28;20051;-60
2022/10/07 05:53:57;;;;;;;0.50;0.30;;;21.50;41.60;;;;;;6063508;29;20159;-60
2022/10/07 05:57:05;;;;;;;0.70;0.40;;;21.60;41.80;;;;;;6065758;28;21122;-60
2022/10/07 06:00:10;;;;;;;0.45;0.30;;;22.00;42.00;;;;;;6064560;28;20066;-60
2022/10/07 06:03:24;;;;;;;0.70;0.40;;;21.70;41.70;;;;;;6051414;28;20059;-60
2022/10/07 06:06:28;;;;;;;1.55;0.52;;;21.60;41.60;;;;;;6052247;28;20172;-61
2022/10/07 06:16:09;;;;;;;0.60;0.50;;;21.90;41.80;;;;;;6041342;28;20171;-60
2022/10/07 06:19:21;;;;;;;0.70;0.40;;;21.90;41.90;;;;;;6044833;28;20824;-60
2022/10/07 06:22:24;;;;;;;0.57;0.50;;;21.90;42.10;;;;;;6071593;28;20738;-61
2022/10/07 06:25:28;;;;;;;0.63;0.50;;;21.70;41.90;;;;;;6063219;28;20059;-61
2022/10/07 06:28:32;;;;;;;0.88;0.50;;;21.90;42.00;;;;;;6056567;28;20059;-61
2022/10/07 06:31:34;;;;;;;1.10;0.40;;;21.90;42.00;;;;;;6057248;28;20047;-60
2022/10/07 06:34:38;;;;;;;1.05;0.50;;;21.80;41.80;;;;;;6004927;28;20174;-61
2022/10/07 06:37:40;;;;;;;0.90;0.52;;;21.70;42.00;;;;;;6028106;28;20051;-62
2022/10/07 06:40:43;;;;;;;2.15;0.60;;;22.10;42.20;;;;;;6021936;28;20083;-62
2022/10/07 06:43:45;;;;;;;1.25;0.65;;;22.00;42.00;;;;;;5974051;29;20114;-62
2022/10/07 06:46:49;;;;;;;1.33;0.60;;;22.20;42.10;;;;;;5971316;28;20056;-60
2022/10/07 06:49:52;;;;;;;1.70;0.50;;;21.90;42.00;;;;;;5986064;28;20087;-61
2022/10/07 06:52:54;;;;;;;0.98;0.52;;;21.90;42.00;;;;;;5949079;28;21504;-60
2022/10/07 06:56:01;;;;;;;0.73;0.40;;;21.60;41.80;;;;;;5968639;28;20062;-61
2022/10/07 06:59:04;;;;;;;0.98;0.50;;;21.80;41.90;;;;;;5935199;28;20044;-61
2022/10/07 07:02:15;;;;;;;0.90;0.40;;;21.90;42.00;;;;;;5920342;28;20047;-61
2022/10/07 07:05:17;;;;;;;1.48;0.40;;;22.30;42.30;;;;;;5921507;28;20057;-61
2022/10/07 07:08:26;;;;;;;0.80;0.50;;;22.30;42.20;;;;;;5917237;28;20043;-58
2022/10/07 07:11:36;;;;;;;0.70;0.47;;;22.00;41.90;;;;;;5928456;28;21887;-61
2022/10/07 07:14:50;;;;;;;0.82;0.40;;;22.00;41.80;;;;;;5922034;28;20192;-58
2022/10/07 07:17:54;;;;;;;2.15;0.50;;;22.00;42.10;;;;;;5934620;28;20229;-59
2022/10/07 07:21:01;;;;;;;1.77;0.50;;;22.50;42.40;;;;;;5929819;28;20060;-61
2022/10/07 07:24:04;;;;;;;2.65;0.73;;;21.90;41.90;;;;;;5935243;29;20056;-60
2022/10/07 07:27:07;;;;;;;0.77;0.40;;;21.90;42.60;;;;;;5946784;28;20058;-61
2022/10/07 07:30:12;;;;;;;1.67;0.50;;;22.40;42.30;;;;;;5956517;28;20056;-60
2022/10/07 07:33:13;;;;;;;0.98;0.50;;;22.00;42.00;;;;;;5904748;28;20054;-60
2022/10/07 07:36:15;;;;;;;0.82;0.60;;;22.40;42.30;;;;;;5905207;28;20141;-62
2022/10/07 07:39:20;;;;;;;0.60;0.40;;;22.40;42.20;;;;;;5927795;28;20048;-61
2022/10/07 07:42:36;;;;;;;1.27;0.50;;;21.90;41.90;;;;;;5901439;28;20051;-59
2022/10/07 07:45:37;;;;;;;0.50;0.35;;;22.30;42.00;;;;;;5859993;28;22013;-61
2022/10/07 07:48:39;;;;;;;0.82;0.50;;;22.40;42.20;;;;;;5872575;28;20054;-60
2022/10/07 07:51:41;;;;;;;0.70;0.40;;;22.50;42.20;;;;;;5852696;28;20065;-60
2022/10/07 07:54:47;;;;;;;1.00;0.50;;;22.00;41.90;;;;;;5888309;28;21519;-60
2022/10/07 07:57:49;;;;;;;1.25;0.40;;;22.20;42.10;;;;;;5879280;29;20435;-62
2022/10/07 08:00:59;;;;;;;1.52;0.40;;;22.50;42.20;;;;;;5904463;29;20055;-62
2022/10/07 08:04:03;;;;;;;0.57;0.30;;;22.50;42.40;;;;;;5864159;28;20039;-60
2022/10/07 08:07:06;;;;;;;2.42;0.40;;;22.60;42.40;;;;;;5926161;28;20055;-60
2022/10/07 08:10:09;;;;;;;0.73;0.40;;;22.80;42.40;;;;;;5937476;28;20052;-61
2022/10/07 08:13:12;;;;;;;1.55;0.55;;;22.50;42.40;;;;;;5905389;28;20051;-60
2022/10/07 08:16:19;;;;;;;1.50;0.45;;;22.60;42.30;;;;;;5919650;28;20048;-60
2022/10/07 08:19:21;;;;;;;4.18;0.40;;;22.60;42.50;;;;;;5863149;28;21255;-58
2022/10/07 08:22:23;;;;;;;0.65;0.45;;;22.80;42.80;;;;;;5920946;28;20158;-60
2022/10/07 08:25:27;;;;;;;0.43;0.30;;;22.50;42.60;;;;;;5870179;28;20058;-61
2022/10/07 08:28:30;;;;;;;0.88;0.50;;;22.60;42.60;;;;;;5890446;28;20648;-61
2022/10/07 08:31:34;;;;;;;1.42;0.68;;;22.60;42.70;;;;;;5880414;28;20102;-62
2022/10/07 08:34:36;;;;;;;1.65;0.50;;;22.70;42.80;;;;;;5860588;28;20063;-62
2022/10/07 08:37:37;;;;;;;1.48;0.30;;;22.50;42.80;;;;;;5886993;28;20035;-61
2022/10/07 08:40:47;;;;;;;0.65;0.50;;;22.80;43.00;;;;;;5862697;28;20213;-61
2022/10/07 08:43:50;;;;;;;0.60;0.40;;;23.10;43.20;;;;;;5870535;28;20055;-62
2022/10/07 08:47:00;;;;;;;0.90;0.50;;;22.50;42.90;;;;;;5882142;28;20178;-61
2022/10/07 08:50:06;;;;;;;0.60;0.40;;;22.10;42.80;;;;;;5852971;28;20947;-59
2022/10/07 08:53:16;;;;;;;0.70;0.30;;;22.70;43.10;;;;;;5893332;28;20162;-61
2022/10/07 08:56:22;;;;;;;1.38;0.47;;;22.70;43.20;;;;;;5926948;28;20164;-60
2022/10/07 08:59:28;;;;;;;2.15;0.30;;;22.90;43.40;;;;;;5898680;28;20059;-62
2022/10/07 09:02:39;;;;;;;0.93;0.40;;;22.70;43.50;;;;;;5878830;28;20052;-60
2022/10/07 09:05:44;;;;;;;0.60;0.40;;;22.80;43.50;;;;;;5919538;28;20048;-62
2022/10/07 09:08:52;;;;;;;0.70;0.40;;;22.40;43.40;;;;;;5881123;28;21150;-62
2022/10/07 09:11:56;;;;;;;0.60;0.30;;;22.70;43.60;;;;;;5851248;28;20052;-62
2022/10/07 09:15:03;;;;;;;0.98;0.40;;;23.90;44.30;;;;;;5889947;28;20047;-61
2022/10/07 09:18:15;;;;;;;0.82;0.50;;;23.00;44.00;;;;;;5893537;28;21444;-61
2022/10/07 09:21:22;;;;;;;0.63;0.32;;;22.90;44.00;;;;;;5935376;28;20087;-62
2022/10/07 09:24:27;;;;;;;0.80;0.50;;;22.60;43.80;;;;;;5883414;28;21244;-62
2022/10/07 09:27:29;;;;;;;0.70;0.40;;;23.00;44.10;;;;;;5907137;28;20080;-60
2022/10/07 09:30:32;;;;;;;2.33;0.47;;;23.00;44.10;;;;;;5912669;28;20048;-60
2022/10/07 09:33:40;;;;;;;1.98;0.40;;;23.00;44.20;;;;;;5888112;28;20581;-61
2022/10/07 09:37:08;;;;;;;0.93;0.52;;;23.10;44.40;;;;;;5912605;28;21906;-63
2022/10/07 09:40:20;;;;;;;0.60;0.35;;;23.00;44.30;;;;;;5885504;28;20504;-61
2022/10/07 09:43:23;;;;;;;0.63;0.55;;;22.90;44.30;;;;;;5899519;28;20186;-59
2022/10/07 09:46:45;;;;;;;0.55;0.32;;;22.70;44.20;;;;;;5911964;28;20047;-60
2022/10/07 09:49:50;;;;;;;0.50;0.40;;;22.80;44.30;;;;;;5901625;28;20079;-57
2022/10/07 09:52:55;;;;;;;0.50;0.30;;;23.00;44.40;;;;;;5897842;28;20044;-58
2022/10/07 09:55:59;;;;;;;0.70;0.40;;;23.10;44.50;;;;;;5927314;28;20167;-56
2022/10/07 09:59:22;;;;;;;0.85;0.30;;;23.30;44.70;;;;;;5938382;28;20477;-56
2022/10/07 10:02:26;;;;;;;0.57;0.40;;;23.10;44.60;;;;;;5913490;28;20054;-57
2022/10/07 10:05:30;;;;;;;0.40;0.32;;;22.90;44.50;;;;;;5933211;28;20189;-59
2022/10/07 10:08:34;;;;;;;0.30;0.25;;;23.20;44.60;;;;;;5924860;28;20051;-59
2022/10/07 10:11:36;;;;;;;1.45;0.30;;;23.00;44.50;;;;;;5911106;28;21988;-59
2022/10/07 10:14:45;;;;;;;0.50;0.35;;;23.20;44.70;;;;;;5942532;28;20044;-57
2022/10/07 10:17:46;;;;;;;0.43;0.40;;;23.00;44.60;;;;;;5923059;28;20047;-59
2022/10/07 10:20:48;;;;;;;0.35;0.30;;;23.20;44.70;;;;;;5929569;28;20055;-57
2022/10/07 10:23:51;;;;;;;0.55;0.40;;;23.00;44.70;;;;;;5891203;28;20052;-57
2022/10/07 10:27:02;;;;;;;0.70;0.40;;;23.10;44.70;;;;;;5900028;28;20424;-60
2022/10/07 10:30:20;;;;;;;2.40;0.82;;;23.10;44.50;;;;;;5953677;28;20217;-57
2022/10/07 10:33:29;;;;;;;0.75;0.47;;;23.00;44.40;;;;;;5916226;28;20680;-58
2022/10/07 10:36:38;;;;;;;0.52;0.30;;;23.20;44.50;;;;;;5955556;28;20054;-57
2022/10/07 10:39:56;;;;;;;0.60;0.45;;;23.10;44.40;;;;;;5969192;28;20058;-57
2022/10/07 10:43:12;;;;;;;0.70;0.30;;;23.50;44.40;;;;;;5950814;28;20043;-59
2022/10/07 10:46:26;;;;;;;0.50;0.30;;;23.20;44.30;;;;;;5976650;28;20048;-59
2022/10/07 10:49:34;;;;;;;1.45;0.30;;;23.30;57.70;;;;;;5985416;28;20051;-59
2022/10/07 10:52:50;;;;;;;0.70;0.50;;;23.60;44.20;;;;;;5955451;28;20059;-59
2022/10/07 10:56:06;;;;;;;0.57;0.38;;;23.70;44.30;;;;;;5963520;28;20051;-59
2022/10/07 10:59:23;;;;;;;0.52;0.50;;;23.40;44.10;;;;;;5991043;28;20126;-59
2022/10/07 11:02:39;;;;;;;0.75;0.43;;;23.40;44.00;;;;;;5979561;28;20054;-59
2022/10/07 11:05:42;;;;;;;0.50;0.38;;;23.40;44.00;;;;;;5964209;28;20054;-58
2022/10/07 11:08:46;;;;;;;0.40;0.30;;;23.40;44.00;;;;;;6015208;28;20075;-59
2022/10/07 11:11:48;;;;;;;0.40;0.30;;;23.30;43.90;;;;;;5978519;28;20157;-59
2022/10/07 11:14:56;;;;;;;0.40;0.32;;;23.30;43.90;;;;;;5987756;28;20043;-58
2022/10/07 11:18:03;;;;;;;0.40;0.20;;;23.60;44.00;;;;;;5981635;28;20079;-59
2022/10/07 11:21:11;;;;;;;0.55;0.38;;;23.30;43.70;;;;;;5996496;28;20047;-59
2022/10/07 11:24:16;;;;;;;0.80;0.40;;;23.20;43.80;;;;;;5991578;28;21212;-57
2022/10/07 11:27:23;;;;;;;1.92;0.40;;;23.20;43.70;;;;;;6008360;28;20048;-59
2022/10/07 11:30:39;;;;;;;0.75;0.30;;;23.40;43.80;;;;;;5970854;28;24706;-60
2022/10/07 11:33:49;;;;;;;0.55;0.40;;;23.50;43.80;;;;;;5986832;28;20051;-57
2022/10/07 11:37:01;;;;;;;0.38;0.20;;;23.40;43.70;;;;;;5992836;28;20098;-58
2022/10/07 11:40:04;;;;;;;0.77;0.20;;;23.30;43.60;;;;;;5984684;28;20061;-59
2022/10/07 11:43:16;;;;;;;0.50;0.25;;;23.10;43.50;;;;;;5957297;28;20051;-57
2022/10/07 11:46:21;;;;;;;0.40;0.20;;;23.10;43.50;;;;;;5949020;28;20054;-53
2022/10/07 11:49:28;;;;;;;0.90;0.40;;;23.30;43.60;;;;;;5966863;28;20052;-59
2022/10/07 11:52:33;;;;;;;0.43;0.20;;;23.60;43.70;;;;;;5948530;29;20067;-59
2022/10/07 11:55:44;;;;;;;1.05;0.30;;;23.90;43.90;;;;;;5934749;28;20039;-57
2022/10/07 11:58:47;;;;;;;2.03;0.40;;;23.50;43.70;;;;;;5910119;28;21174;-60
2022/10/07 12:01:53;;;;;;;0.45;0.20;;;23.30;43.50;;;;;;5939802;28;22123;-61
2022/10/07 12:04:57;;;;;;;0.70;0.30;;;23.50;43.60;;;;;;5950262;28;20052;-61
2022/10/07 12:08:00;;;;;;;1.42;0.47;;;23.30;43.40;;;;;;5943722;28;20083;-59
2022/10/07 12:11:28;;;;;;;2.00;0.77;;;23.70;43.70;;;;;;5907107;28;20056;-60
2022/10/07 12:14:41;;;;;;;2.78;0.68;;;23.30;43.50;;;;;;5913001;28;21052;-62
2022/10/07 12:17:53;;;;;;;2.45;0.70;;;23.60;43.60;;;;;;5919477;28;21616;-62
2022/10/07 12:21:05;;;;;;;3.65;0.90;;;23.60;43.50;;;;;;5924943;28;20166;-61
2022/10/07 12:24:13;;;;;;;1.25;0.68;;;23.50;43.50;;;;;;5931702;28;20178;-60
2022/10/07 12:27:17;;;;;;;2.00;0.57;;;23.40;43.40;;;;;;5920511;28;20051;-60
2022/10/07 12:30:36;;;;;;;4.07;0.77;;;23.70;43.60;;;;;;5924551;28;20182;-60
2022/10/07 12:33:53;;;;;;;2.92;0.70;;;23.60;43.60;;;;;;5887572;28;20249;-60
2022/10/07 12:37:28;;;;;;;3.65;1.08;;;23.60;42.90;;;;;;5904026;28;20052;-60
2022/10/07 12:40:34;;;;;;;4.00;0.77;;;23.30;43.20;;;;;;5900109;29;21230;-60
2022/10/07 12:43:46;;;;;;;5.43;0.90;;;23.60;43.30;;;;;;5933617;28;20050;-60
2022/10/07 12:46:51;;;;;;;6.53;1.20;;;23.40;43.30;;;;;;5916916;28;20323;-60
2022/10/07 12:49:57;;;;;;;4.25;1.00;;;23.70;43.80;;;;;;5889243;28;20685;-60
2022/10/07 12:53:02;;;;;;;1.95;0.68;;;23.70;43.40;;;;;;5882732;29;21523;-59
2022/10/07 12:56:05;;;;;;;3.47;1.05;;;23.80;43.60;;;;;;5871851;28;21196;-58
2022/10/07 13:03:20;;;;;;;3.83;1.15;;;23.70;43.30;;;;;;5912648;28;20377;-61
2022/10/07 13:06:54;;;;;;;5.63;1.23;;;23.60;43.30;;;;;;5895057;28;20538;-61
2022/10/07 13:10:17;;;;;;;2.17;0.73;;;23.70;43.20;;;;;;5891810;28;20114;-60
2022/10/07 13:13:23;;;;;;;2.95;1.00;;;23.80;43.40;;;;;;5894855;28;20051;-62
2022/10/07 13:16:33;;;;;;;2.83;1.02;;;23.40;43.00;;;;;;5893174;28;20047;-61
2022/10/07 13:19:42;;;;;;;2.42;1.00;;;23.40;43.00;;;;;;5907382;28;20936;-60
2022/10/07 13:22:46;;;;;;;2.63;0.60;;;23.70;43.10;;;;;;5903703;28;20206;-60
2022/10/07 13:25:52;;;;;;;1.38;0.47;;;23.40;43.00;;;;;;5900965;29;20048;-59
2022/10/07 13:28:55;;;;;;;1.02;0.43;;;23.70;43.10;;;;;;5188561;28;20181;-59
2022/10/07 13:32:06;;;;;;;0.73;0.32;;;23.70;43.20;;;;;;5922934;28;20043;-56
2022/10/07 13:35:28;;;;;;;1.65;0.40;;;23.90;43.30;;;;;;5906679;29;20043;-59
2022/10/07 13:38:30;;;;;;;1.00;0.43;;;24.00;43.30;;;;;;5936090;28;20213;-58
2022/10/07 13:41:35;;;;;;;0.90;0.45;;;24.00;43.40;;;;;;5905852;28;21306;-56
2022/10/07 13:44:42;;;;;;;0.90;0.40;;;23.90;43.20;;;;;;5888540;28;20138;-57
2022/10/07 13:47:45;;;;;;;0.70;0.35;;;24.00;43.20;;;;;;5923079;28;20082;-56
2022/10/07 13:50:49;;;;;;;0.88;0.40;;;23.80;43.00;;;;;;5949079;28;22144;-58
2022/10/07 13:53:54;;;;;;;1.02;0.43;;;24.00;43.00;;;;;;5897097;28;20154;-56
2022/10/07 13:56:56;;;;;;;0.57;0.30;;;23.70;42.60;;;;;;5884062;28;20055;-58
2022/10/07 13:59:59;;;;;;;0.75;0.30;;;24.10;42.70;;;;;;5915449;28;20079;-56
2022/10/07 14:03:12;;;;;;;1.13;0.40;;;23.90;42.40;;;;;;4902051;28;21419;-56
2022/10/07 14:06:37;;;;;;;1.70;0.45;;;24.00;42.30;;;;;;3602896;28;22792;-56
2022/10/07 14:09:46;;;;;;;0.88;0.28;;;23.90;42.30;;;;;;3433622;29;22200;-56
2022/10/07 14:12:55;;;;;;;0.68;0.28;;;23.80;42.20;;;;;;3527977;28;21977;-57
2022/10/07 14:15:59;;;;;;;1.17;0.30;;;23.50;41.90;;;;;;5131411;28;20437;-58
2022/10/07 14:19:00;;;;;;;1.02;0.30;;;24.00;41.90;;;;;;5904388;28;21250;-57
2022/10/07 14:22:12;;;;;;;0.52;0.40;;;23.90;42.20;;;;;;5920157;28;20146;-57
2022/10/07 14:25:18;;;;;;;0.40;0.20;;;24.00;41.80;;;;;;5916733;28;21148;-58
2022/10/07 14:28:27;;;;;;;0.50;0.40;;;24.00;41.80;;;;;;5929557;28;20065;-58
2022/10/07 14:38:18;;;;;;;0.40;0.30;;;23.90;41.20;;;;;;5904988;28;20051;-56
2022/10/07 14:41:21;;;;;;;1.17;0.57;;;24.00;40.80;;;;;;5925568;28;20345;-54
2022/10/07 14:44:25;;;;;;;1.10;0.50;;;23.80;40.70;;;;;;5930902;28;20050;-56
2022/10/07 14:47:27;;;;;;;1.02;0.40;;;24.00;40.80;;;;;;5929953;28;20281;-56
2022/10/07 14:50:28;;;;;;;0.75;0.35;;;24.20;40.40;;;;;;5880385;29;20058;-59
2022/10/07 14:53:30;;;;;;;0.90;0.50;;;23.80;40.00;;;;;;5948633;28;20047;-59
2022/10/07 14:56:34;;;;;;;0.45;0.30;;;23.80;39.70;;;;;;5951054;28;20881;-58
2022/10/07 14:59:36;;;;;;;0.95;0.47;;;24.00;39.70;;;;;;5941058;28;20051;-59
2022/10/07 15:02:38;;;;;;;0.52;0.20;;;24.00;39.30;;;;;;5918754;28;20054;-59
2022/10/07 15:05:39;;;;;;;0.30;0.20;;;23.30;38.80;;;;;;5914730;28;20122;-59
2022/10/07 15:08:41;;;;;;;0.50;0.20;;;24.00;38.60;;;;;;5899477;29;20054;-58
2022/10/07 15:11:43;;;;;;;0.55;0.22;;;24.00;39.50;;;;;;5901437;28;20051;-58
2022/10/07 15:14:47;;;;;;;0.40;0.20;;;23.80;38.60;;;;;;4431661;28;21251;-58
2022/10/07 15:17:49;;;;;;;0.13;0.10;;;23.80;38.80;;;;;;5225670;28;20161;-56
2022/10/07 15:20:55;;;;;;;0.40;0.35;;;24.00;38.90;;;;;;5941198;28;20183;-57
2022/10/07 15:23:57;;;;;;;0.10;0.10;;;24.00;38.60;;;;;;5938017;28;20114;-57
2022/10/07 15:27:00;;;;;;;0.10;0.10;;;23.90;38.60;;;;;;5943051;28;21399;-56
2022/10/07 15:30:02;;;;;;;0.20;0.10;;;24.00;38.80;;;;;;5923287;28;20129;-60
2022/10/07 15:33:04;;;;;;;0.20;0.10;;;24.10;38.80;;;;;;5965842;28;20066;-55
2022/10/07 15:36:06;;;;;;;0.20;0.15;;;23.80;38.80;;;;;;5968598;28;20986;-55
2022/10/07 15:39:09;;;;;;;0.60;0.20;;;23.80;38.80;;;;;;5054677;28;21761;-55
2022/10/07 15:42:13;;;;;;;0.50;0.20;;;24.00;39.20;;;;;;3234683;28;23680;-57
2022/10/07 15:45:16;;;;;;;0.55;0.20;;;24.40;39.40;;;;;;4602936;28;20071;-59
2022/10/07 15:48:18;;;;;;;0.20;0.20;;;23.90;39.00;;;;;;5955027;28;20054;-58
2022/10/07 15:51:19;;;;;;;0.32;0.20;;;24.30;39.20;;;;;;5968552;28;20067;-54
2022/10/07 15:54:21;;;;;;;0.73;0.20;;;24.60;39.30;;;;;;5955341;28;20191;-58
2022/10/07 15:57:26;;;;;;;0.52;0.22;;;24.20;39.20;;;;;;5972134;28;20055;-60
2022/10/07 16:00:28;;;;;;;0.20;0.10;;;23.90;38.90;;;;;;5953818;28;20367;-58
2022/10/07 16:03:34;;;;;;;0.10;0.10;;;24.10;39.00;;;;;;5984972;28;22119;-54
2022/10/07 16:06:36;;;;;;;0.20;0.10;;;24.30;39.60;;;;;;4517577;28;21122;-58
2022/10/07 16:09:37;;;;;;;0.20;0.17;;;23.90;38.80;;;;;;5722297;28;20052;-58
2022/10/07 16:12:39;;;;;;;0.10;0.03;;;23.80;38.60;;;;;;5996303;28;20051;-58
2022/10/07 16:15:41;;;;;;;0.10;0.10;;;24.10;38.60;;;;;;6019516;28;20463;-60
2022/10/07 16:18:45;;;;;;;0.50;0.17;;;24.10;38.50;;;;;;6024984;28;20071;-59
2022/10/07 16:21:47;;;;;;;0.38;0.20;;;23.90;38.30;;;;;;6034481;28;21073;-60
2022/10/07 16:24:48;;;;;;;0.93;0.30;;;24.00;38.30;;;;;;6030928;28;20386;-54
2022/10/07 16:31:07;;;;;;;0.40;0.20;;;24.10;38.30;;;;;;6042324;28;20055;-55